createdAt,value
2022-09-16T00:04:45.698Z,71.23
2022-09-16T00:14:47.519Z,71.79
2022-09-16T00:24:49.144Z,72.09
2022-09-16T00:34:51.740Z,72.33
2022-09-16T00:45:06.057Z,72.81
2022-09-16T00:55:13.487Z,72.73
2022-09-16T01:05:22.113Z,72.76
2022-09-16T01:15:31.493Z,73.85
2022-09-16T01:25:47.505Z,73.72
2022-09-16T01:36:12.342Z,73.49
2022-09-16T01:46:20.944Z,73.52
2022-09-16T01:56:48.766Z,73.91
2022-09-16T02:06:53.889Z,73.92
2022-09-16T02:17:00.074Z,73.88
2022-09-16T02:27:08.405Z,74.12
2022-09-16T02:37:21.226Z,74.09
2022-09-16T02:47:42.070Z,74.08
2022-09-16T02:57:43.526Z,74.23
2022-09-16T03:07:45.057Z,74.57
2022-09-16T03:17:55.452Z,74.45
2022-09-16T03:28:03.068Z,74.39
2022-09-16T03:38:06.860Z,73.86
2022-09-16T03:48:09.679Z,72.70
2022-09-16T03:58:11.191Z,72.45
2022-09-16T04:08:12.691Z,71.99
2022-09-16T04:18:14.225Z,71.86
2022-09-16T04:28:15.852Z,71.83
2022-09-16T04:38:17.518Z,72.04
2022-09-16T04:48:19.351Z,71.34
2022-09-16T04:58:20.922Z,71.06
2022-09-16T05:08:22.563Z,70.89
2022-09-16T05:18:27.993Z,71.25
2022-09-16T05:28:30.190Z,70.91
2022-09-16T05:38:31.790Z,70.61
2022-09-16T05:48:34.864Z,69.83
2022-09-16T05:58:37.482Z,68.10
2022-09-16T06:08:40.190Z,66.13
2022-09-16T06:18:41.727Z,65.42
2022-09-16T06:28:43.608Z,62.64
2022-09-16T06:38:46.657Z,61.89
2022-09-16T06:48:50.847Z,59.65
2022-09-16T06:58:55.277Z,58.46
2022-09-16T07:08:57.700Z,58.84
2022-09-16T07:19:01.214Z,56.06
2022-09-16T07:29:05.555Z,55.59
2022-09-16T07:39:07.546Z,56.16
2022-09-16T07:49:12.434Z,55.59
2022-09-16T07:59:19.415Z,55.58
2022-09-16T08:09:41.219Z,54.47
2022-09-16T08:19:44.246Z,55.61
2022-09-16T08:29:45.796Z,57.48
2022-09-16T08:39:48.755Z,56.07
2022-09-16T08:50:00.516Z,55.42
2022-09-16T09:00:07.762Z,54.60
2022-09-16T09:10:32.465Z,54.11
2022-09-16T09:20:55.220Z,53.18
2022-09-16T09:31:10.842Z,52.32
2022-09-16T09:41:18.884Z,48.98
2022-09-16T09:51:29.536Z,48.83
2022-09-16T10:01:31.041Z,50.04
2022-09-16T10:11:35.445Z,49.88
2022-09-16T10:21:47.636Z,47.93
2022-09-16T10:31:49.925Z,47.28
2022-09-16T10:41:51.695Z,46.70
2022-09-16T10:51:53.596Z,47.00
2022-09-16T11:02:26.892Z,48.57
2022-09-16T11:12:36.312Z,49.72
2022-09-16T11:22:44.855Z,46.49
2022-09-16T11:33:03.073Z,47.11
2022-09-16T11:43:42.261Z,46.87
2022-09-16T11:54:09.455Z,46.75
2022-09-16T12:04:20.383Z,45.72
2022-09-16T12:14:33.748Z,43.95
2022-09-16T12:25:00.667Z,41.71
2022-09-16T12:35:10.698Z,42.00
2022-09-16T12:45:39.414Z,44.11
2022-09-16T12:56:00.671Z,44.82
2022-09-16T13:06:07.560Z,46.50
2022-09-16T13:16:09.607Z,46.16
2022-09-16T13:26:11.339Z,46.99
2022-09-16T13:36:20.871Z,45.76
2022-09-16T13:46:34.851Z,45.15
2022-09-16T13:56:54.657Z,44.94
2022-09-16T14:07:13.656Z,43.02
2022-09-16T14:17:25.600Z,42.68
2022-09-16T14:27:27.063Z,44.59
2022-09-16T14:37:31.746Z,47.49
2022-09-16T14:47:51.099Z,44.21
2022-09-16T14:57:53.686Z,45.68
2022-09-16T15:08:14.087Z,48.04
2022-09-16T15:18:32.290Z,48.22
2022-09-16T15:28:34.040Z,49.04
2022-09-16T15:38:35.481Z,49.14
2022-09-16T15:48:44.736Z,48.66
2022-09-16T15:58:54.038Z,50.85
2022-09-16T16:08:58.081Z,51.83
2022-09-16T16:18:59.922Z,52.44
2022-09-16T16:29:02.463Z,52.24
2022-09-16T16:39:04.139Z,52.74
2022-09-16T16:49:05.668Z,53.92
2022-09-16T16:59:09.127Z,54.86
2022-09-16T17:20:28.769Z,56.96
2022-09-16T17:30:30.553Z,58.89
2022-09-16T17:40:36.985Z,59.91
2022-09-16T18:02:01.673Z,60.13
2022-09-16T18:12:03.277Z,59.68
2022-09-16T18:45:11.609Z,60.77
2022-09-16T18:55:17.902Z,60.93
2022-09-16T19:05:19.745Z,61.22
2022-09-16T19:25:53.084Z,59.97
2022-09-16T19:35:55.636Z,58.31
2022-09-16T19:46:24.583Z,58.76
2022-09-16T19:56:29.835Z,61.07
2022-09-16T20:06:39.278Z,61.70
2022-09-16T20:16:42.870Z,62.95
2022-09-16T20:26:49.633Z,63.64
2022-09-16T20:36:56.706Z,62.88
2022-09-16T20:47:00.704Z,62.63
2022-09-16T20:57:17.137Z,62.34
2022-09-16T21:07:24.488Z,63.80
2022-09-16T21:17:28.961Z,62.78
2022-09-16T21:27:34.522Z,63.27
2022-09-16T21:37:36.294Z,62.86
2022-09-16T21:47:40.637Z,63.20
2022-09-16T21:57:42.199Z,62.94
2022-09-16T22:07:45.333Z,61.95
2022-09-16T22:17:51.249Z,62.66
2022-09-16T22:27:54.504Z,62.96
2022-09-16T22:37:55.942Z,63.94
2022-09-16T22:47:57.398Z,64.60
2022-09-16T22:57:58.841Z,64.68
2022-09-16T23:08:00.318Z,64.17
2022-09-16T23:18:01.772Z,64.26
2022-09-16T23:28:03.283Z,63.91
2022-09-16T23:38:04.744Z,64.22
2022-09-16T23:48:06.200Z,64.04
2022-09-16T23:58:07.746Z,63.94
